createdAt,value
2022-10-16T00:03:05.857Z,16.17
2022-10-16T00:08:11.837Z,16.14
2022-10-16T00:13:14.851Z,16.10
2022-10-16T00:18:18.410Z,16.04
2022-10-16T00:23:23.608Z,16.00
2022-10-16T00:28:27.553Z,15.96
2022-10-16T00:33:31.739Z,15.97
2022-10-16T00:38:35.665Z,16.01
2022-10-16T00:43:45.299Z,16.05
2022-10-16T00:49:04.811Z,16.07
2022-10-16T00:54:15.251Z,16.06
2022-10-16T00:59:28.284Z,16.04
2022-10-16T01:04:39.467Z,16.03
2022-10-16T01:10:07.214Z,15.99
2022-10-16T01:15:19.699Z,15.96
2022-10-16T01:20:49.215Z,15.93
2022-10-16T01:26:04.626Z,15.90
2022-10-16T01:31:11.591Z,15.86
2022-10-16T01:36:20.914Z,15.88
2022-10-16T01:41:34.560Z,15.93
2022-10-16T01:46:42.623Z,15.95
2022-10-16T01:51:51.228Z,15.96
2022-10-16T01:56:58.222Z,15.96
2022-10-16T02:02:07.201Z,15.93
2022-10-16T02:07:13.883Z,15.87
2022-10-16T02:12:22.543Z,15.82
2022-10-16T02:17:28.473Z,15.76
2022-10-16T02:22:40.925Z,15.70
2022-10-16T02:28:06.439Z,15.67
2022-10-16T02:33:15.134Z,15.63
2022-10-16T02:38:19.775Z,15.59
2022-10-16T02:43:26.223Z,15.55
2022-10-16T02:48:29.375Z,15.55
2022-10-16T02:53:32.712Z,15.62
2022-10-16T02:58:36.204Z,15.66
2022-10-16T03:03:40.192Z,15.66
2022-10-16T03:08:43.636Z,15.64
2022-10-16T03:13:46.875Z,15.61
2022-10-16T03:18:51.266Z,15.59
2022-10-16T03:23:54.116Z,15.56
2022-10-16T03:28:57.389Z,15.53
2022-10-16T03:34:00.904Z,15.48
2022-10-16T03:39:04.170Z,15.44
2022-10-16T03:44:09.005Z,15.42
2022-10-16T03:49:13.802Z,15.43
2022-10-16T03:54:16.887Z,15.46
2022-10-16T03:59:23.246Z,15.46
2022-10-16T04:04:26.417Z,15.45
2022-10-16T04:09:30.385Z,15.44
2022-10-16T04:14:33.229Z,15.42
2022-10-16T04:19:36.887Z,15.39
2022-10-16T04:24:40.097Z,15.36
2022-10-16T04:29:43.665Z,15.35
2022-10-16T04:34:46.713Z,15.34
2022-10-16T04:39:50.129Z,15.36
2022-10-16T04:44:53.131Z,15.41
2022-10-16T04:49:58.036Z,15.44
2022-10-16T04:55:03.686Z,15.42
2022-10-16T05:00:06.789Z,15.38
2022-10-16T05:05:10.181Z,15.32
2022-10-16T05:10:13.246Z,15.24
2022-10-16T05:15:16.414Z,15.19
2022-10-16T05:20:19.227Z,15.13
2022-10-16T05:25:22.393Z,15.09
2022-10-16T05:30:25.310Z,15.10
2022-10-16T05:35:28.296Z,15.10
2022-10-16T05:40:31.245Z,15.10
2022-10-16T05:45:34.052Z,15.11
2022-10-16T05:50:37.051Z,15.13
2022-10-16T05:55:39.866Z,15.12
2022-10-16T06:00:42.691Z,15.11
2022-10-16T06:05:45.542Z,15.13
2022-10-16T06:10:48.826Z,15.18
2022-10-16T06:15:51.751Z,15.28
2022-10-16T06:20:55.958Z,15.33
2022-10-16T06:26:06.618Z,15.39
2022-10-16T06:31:13.798Z,15.49
2022-10-16T06:36:18.418Z,15.56
2022-10-16T06:41:23.804Z,15.63
2022-10-16T06:46:27.870Z,15.69
2022-10-16T06:51:33.108Z,15.78
2022-10-16T06:56:36.160Z,15.91
2022-10-16T07:01:39.269Z,16.11
2022-10-16T07:06:42.173Z,16.32
2022-10-16T07:11:45.111Z,16.50
2022-10-16T07:16:50.467Z,16.65
2022-10-16T07:21:53.248Z,16.81
2022-10-16T07:26:56.047Z,16.95
2022-10-16T07:32:01.117Z,17.08
2022-10-16T07:37:04.050Z,17.21
2022-10-16T07:42:09.264Z,17.36
2022-10-16T07:47:14.427Z,17.54
2022-10-16T07:52:17.716Z,17.68
2022-10-16T07:57:21.215Z,17.82
2022-10-16T08:02:25.248Z,17.93
2022-10-16T08:07:28.299Z,18.04
2022-10-16T08:12:31.320Z,18.16
2022-10-16T08:17:34.167Z,18.26
2022-10-16T08:22:36.994Z,18.31
2022-10-16T08:27:39.882Z,18.36
2022-10-16T08:32:43.235Z,18.41
2022-10-16T08:37:45.983Z,18.49
2022-10-16T08:42:54.502Z,18.57
2022-10-16T08:48:16.345Z,18.65
2022-10-16T08:53:27.379Z,18.79
2022-10-16T08:58:31.554Z,18.96
2022-10-16T09:03:52.449Z,19.19
2022-10-16T09:09:04.373Z,19.46
2022-10-16T09:14:54.777Z,19.63
2022-10-16T09:20:12.791Z,19.78
2022-10-16T09:25:22.631Z,19.87
2022-10-16T09:30:30.966Z,19.96
2022-10-16T09:35:39.845Z,20.07
2022-10-16T09:40:44.498Z,20.16
2022-10-16T09:45:57.505Z,20.21
2022-10-16T09:51:04.888Z,20.29
2022-10-16T09:56:11.723Z,20.32
2022-10-16T10:01:16.971Z,20.35
2022-10-16T10:06:22.603Z,20.38
2022-10-16T10:11:41.287Z,20.43
2022-10-16T10:16:44.227Z,20.49
2022-10-16T10:21:47.575Z,20.57
2022-10-16T10:27:05.516Z,20.64
2022-10-16T10:32:29.442Z,20.76
2022-10-16T10:37:54.052Z,20.90
2022-10-16T10:43:12.315Z,21.03
2022-10-16T10:48:30.375Z,21.17
2022-10-16T10:54:04.123Z,21.33
2022-10-16T10:59:18.500Z,21.48
2022-10-16T11:04:48.561Z,21.60
2022-10-16T11:10:03.189Z,21.71
2022-10-16T11:15:14.724Z,21.74
2022-10-16T11:20:26.270Z,21.82
2022-10-16T11:25:32.351Z,21.88
2022-10-16T11:30:47.141Z,21.84
2022-10-16T11:36:00.179Z,21.79
2022-10-16T11:41:36.391Z,21.71
2022-10-16T11:46:58.925Z,21.68
2022-10-16T11:52:21.918Z,21.64
2022-10-16T11:57:28.127Z,21.63
2022-10-16T12:02:31.600Z,21.62
2022-10-16T12:07:43.753Z,21.65
2022-10-16T12:12:47.540Z,21.67
2022-10-16T12:17:51.146Z,21.66
2022-10-16T12:23:08.380Z,21.60
2022-10-16T12:28:14.115Z,21.56
2022-10-16T12:33:26.356Z,21.62
2022-10-16T12:38:52.718Z,21.69
2022-10-16T12:43:56.254Z,21.76
2022-10-16T12:49:14.603Z,21.82
2022-10-16T12:54:51.049Z,21.84
2022-10-16T13:00:22.580Z,21.82
2022-10-16T13:05:59.714Z,21.79
2022-10-16T13:11:45.145Z,21.76
2022-10-16T13:17:04.077Z,21.74
2022-10-16T13:22:38.915Z,21.77
2022-10-16T13:28:03.031Z,21.81
2022-10-16T13:33:13.720Z,21.78
2022-10-16T13:38:20.072Z,21.73
2022-10-16T13:43:37.784Z,21.65
2022-10-16T13:48:42.828Z,21.60
2022-10-16T13:53:47.228Z,21.58
2022-10-16T13:59:05.289Z,21.54
2022-10-16T14:04:11.151Z,21.51
2022-10-16T14:09:25.283Z,21.46
2022-10-16T14:14:36.977Z,21.44
2022-10-16T14:19:40.011Z,21.44
2022-10-16T14:24:43.001Z,21.46
2022-10-16T14:29:45.890Z,21.45
2022-10-16T14:34:54.809Z,21.41
2022-10-16T14:39:58.082Z,21.38
2022-10-16T14:45:04.849Z,21.36
2022-10-16T14:50:15.472Z,21.36
2022-10-16T14:55:19.350Z,21.36
2022-10-16T15:00:25.346Z,21.37
2022-10-16T15:05:30.921Z,21.35
2022-10-16T15:10:39.808Z,21.35
2022-10-16T15:15:47.767Z,21.33
2022-10-16T15:20:51.757Z,21.30
2022-10-16T15:25:56.718Z,21.28
2022-10-16T15:30:59.732Z,21.26
2022-10-16T15:36:04.280Z,21.21
2022-10-16T15:41:07.435Z,21.16
2022-10-16T15:46:15.375Z,21.12
2022-10-16T15:51:19.639Z,21.05
2022-10-16T15:56:23.467Z,20.96
2022-10-16T16:01:26.897Z,20.77
2022-10-16T16:06:30.570Z,20.54
2022-10-16T16:11:38.615Z,20.32
2022-10-16T16:16:42.516Z,20.14
2022-10-16T16:21:45.626Z,19.97
2022-10-16T16:26:48.441Z,19.84
2022-10-16T16:31:51.253Z,19.68
2022-10-16T16:36:54.961Z,19.52
2022-10-16T16:41:59.681Z,19.38
2022-10-16T16:47:04.346Z,19.25
2022-10-16T16:52:07.346Z,19.13
2022-10-16T16:57:10.452Z,19.02
2022-10-16T17:02:13.510Z,18.92
2022-10-16T17:07:18.442Z,18.82
2022-10-16T17:12:22.728Z,18.73
2022-10-16T17:17:26.203Z,18.68
2022-10-16T17:22:29.645Z,18.64
2022-10-16T17:27:34.434Z,18.65
2022-10-16T17:32:38.055Z,18.78
2022-10-16T17:37:42.238Z,18.98
2022-10-16T17:42:45.162Z,19.06
2022-10-16T17:47:48.269Z,19.00
2022-10-16T17:52:51.188Z,18.90
2022-10-16T17:57:54.130Z,18.78
2022-10-16T18:02:57.358Z,18.65
2022-10-16T18:08:00.248Z,18.53
2022-10-16T18:13:03.466Z,18.44
2022-10-16T18:18:06.703Z,18.34
2022-10-16T18:23:09.581Z,18.28
2022-10-16T18:28:12.549Z,18.18
2022-10-16T18:33:15.418Z,18.06
2022-10-16T18:38:18.759Z,18.00
2022-10-16T18:43:21.665Z,18.10
2022-10-16T18:48:25.238Z,18.32
2022-10-16T18:58:32.032Z,18.57
2022-10-16T19:03:35.227Z,18.53
2022-10-16T19:08:39.226Z,18.42
2022-10-16T19:13:46.178Z,18.27
2022-10-16T19:18:50.794Z,18.10
2022-10-16T19:23:56.286Z,17.97
2022-10-16T19:29:02.472Z,17.86
2022-10-16T19:34:06.902Z,17.72
2022-10-16T19:39:25.864Z,17.61
2022-10-16T19:44:37.809Z,17.64
2022-10-16T19:49:40.822Z,17.63
2022-10-16T19:54:43.706Z,17.58
2022-10-16T19:59:46.757Z,17.53
2022-10-16T20:04:49.807Z,17.60
2022-10-16T20:09:53.233Z,17.59
2022-10-16T20:14:56.293Z,17.50
2022-10-16T20:19:59.155Z,17.36
2022-10-16T20:25:14.327Z,17.35
2022-10-16T20:30:18.671Z,17.40
2022-10-16T20:35:21.713Z,17.28
2022-10-16T20:40:27.627Z,17.14
2022-10-16T20:45:31.149Z,16.98
2022-10-16T20:50:34.218Z,16.82
2022-10-16T20:55:38.099Z,16.76
2022-10-16T21:00:41.044Z,16.95
2022-10-16T21:05:43.963Z,17.05
2022-10-16T21:10:46.766Z,16.98
2022-10-16T21:15:49.841Z,16.84
2022-10-16T21:20:52.751Z,16.68
2022-10-16T21:25:55.678Z,16.60
2022-10-16T21:30:58.739Z,16.49
2022-10-16T21:36:01.773Z,16.36
2022-10-16T21:41:16.544Z,16.23
2022-10-16T21:46:22.289Z,16.10
2022-10-16T21:51:34.041Z,15.99
2022-10-16T21:56:37.051Z,15.93
2022-10-16T22:01:40.440Z,15.89
2022-10-16T22:06:44.052Z,15.86
2022-10-16T22:11:46.925Z,15.82
2022-10-16T22:16:50.530Z,15.74
2022-10-16T22:21:57.324Z,15.66
2022-10-16T22:27:00.425Z,15.58
2022-10-16T22:32:03.306Z,15.48
2022-10-16T22:37:06.182Z,15.41
2022-10-16T22:42:09.077Z,15.34
2022-10-16T22:47:11.997Z,15.33
2022-10-16T22:52:15.257Z,15.36
2022-10-16T22:57:18.201Z,15.36
2022-10-16T23:02:21.441Z,15.36
2022-10-16T23:07:24.359Z,15.31
2022-10-16T23:12:30.492Z,15.30
2022-10-16T23:17:33.773Z,15.27
2022-10-16T23:22:36.581Z,15.25
2022-10-16T23:27:39.433Z,15.22
2022-10-16T23:32:42.382Z,15.21
2022-10-16T23:37:45.273Z,15.22
2022-10-16T23:42:50.843Z,15.19
2022-10-16T23:47:53.543Z,15.11
2022-10-16T23:52:56.771Z,15.01
2022-10-16T23:57:59.571Z,14.90
